Davis, West Virginia
Current Conditions -  °F | °C
As of 5:50 PM on Wednesday 26 Nov 2014 (Local Time) from KW99 Reporting Station
Haze Haze  
Wind Chill: 34°   Ceiling: 4900
Heat Index: 34°   Visibility: 5mi
Dew Point: 33°   Wind: 0mph
Humidity: 95%   Direction: NA
Pressure: 30"   Gusts: NA
Location:  39.13°N, 79.46°W
Report Text: KW99 262250Z AUTO 00000KT 5SM BR SCT009 BKN049 OVC120 01/00 A3000 RMK AO2 P0002 T00110004
Loading
Personal Weather Stations






























Interactive Weather Map New forecast layout! Learn more

10-Day Weather Forecast

Advertisements
Track Severe Weather on mobile